METAR Data

Data at: 2309 UTC 18 Dec 2018

EDDW 182250Z 13014KT CAVOK 03/01 Q1015
EDDW 182220Z 12010KT CAVOK 03/01 Q1016
EDDW 182150Z 13008KT CAVOK 03/01 Q1017
EDDW 182120Z 13010KT CAVOK 03/01 Q1017
EDDW 182050Z 13010KT CAVOK 03/01 Q1017 NOSIG
EDDW 182020Z 13011KT CAVOK 03/01 Q1017 NOSIG
EDDW 181950Z 13010KT CAVOK 03/01 Q1017 NOSIG
EDDW 181920Z 13011KT CAVOK 03/02 Q1018 NOSIG
EDDW 181850Z 13011KT CAVOK 03/02 Q1018 NOSIG
EDDW 181820Z 12009KT CAVOK 04/02 Q1019 NOSIG
EDDW 181750Z 14007KT CAVOK 03/02 Q1020 NOSIG
EDDW 181720Z 14009KT CAVOK 04/02 Q1020 NOSIG
EDDW 181650Z 14009KT CAVOK 05/03 Q1020 NOSIG
EDDW 181620Z 14008KT CAVOK 05/03 Q1020 NOSIG
EDDW 181550Z 14009KT CAVOK 05/03 Q1020 NOSIG
EDDW 181520Z 13008KT CAVOK 05/04 Q1020 NOSIG
EDDW 181450Z 13007KT CAVOK 06/04 Q1020 NOSIG
EDDW 181420Z 14006KT 9999 FEW033 06/04 Q1020 NOSIG
EDDW 181350Z 14007KT 9999 SCT024 07/04 Q1021 NOSIG
EDDW 181320Z 15008KT 9999 BKN023 07/05 Q1021 NOSIG
EDDW 181250Z 14007KT 9999 SCT017 BKN025 07/05 Q1021 NOSIG
EDDW 181220Z 16006KT 9999 BKN016 07/05 Q1022 NOSIG
EDDW 181150Z 16005KT 120V190 9999 BKN015 07/04 Q1022 NOSIG
EDDW 181120Z 18007KT 9999 BKN012 06/04 Q1022 BECMG BKN015
EDDW 181050Z 18011KT 150V210 9999 BKN011 06/04 Q1022 BECMG BKN015
EDDW 181020Z 19010KT 6000 BKN011 06/04 Q1023 BECMG BKN015
EDDW 180950Z 18009KT 6000 BKN010 06/05 Q1023 BECMG BKN015
EDDW 180920Z 18008KT 5000 BR BKN009 06/05 Q1023 BECMG BKN015
EDDW 180850Z 16006KT 130V190 5000 BR BKN008 06/05 Q1023 TEMPO 4000
EDDW 180820Z 19004KT 5000 BR BKN008 06/05 Q1023 TEMPO 4000
EDDW 180750Z 23008KT 190V250 9000 BKN008 06/05 Q1023 TEMPO 4000
EDDW 180720Z 19005KT 150V230 5000 BR BKN008 06/05 Q1023 TEMPO 4000
EDDW 180650Z 21004KT 7000 BKN009 06/05 Q1023 NOSIG
EDDW 180620Z 20005KT 9000 BKN012 06/05 Q1023 TEMPO 4500 BR BKN009
EDDW 180550Z 18003KT 150V210 7000 SCT012 BKN014 06/05 Q1023 TEMPO 4500 BR BKN009
EDDW 180520Z 19004KT 160V220 7000 FEW010 BKN014 06/05 Q1023 TEMPO 4500 BR BKN009
EDDW 180450Z 23005KT 7000 FEW009 BKN013 06/05 Q1023 TEMPO 4500 BR BKN009
EDDW 180420Z 22006KT 7000 FEW008 BKN012 06/05 Q1023 TEMPO 4500 BR BKN009
EDDW 180350Z 23008KT 7000 SCT010 BKN014 06/05 Q1023 TEMPO 4500 BR BKN009
EDDW 180320Z 23007KT 7000 SCT011 BKN016 06/05 Q1023
EDDW 180250Z 23008KT 6000 BKN014 06/05 Q1023
EDDW 180220Z 22007KT 6000 BKN010 06/05 Q1023
EDDW 180150Z 22007KT 6000 BKN012 06/05 Q1023
EDDW 180120Z 23009KT 6000 BKN010 06/05 Q1022
EDDW 180050Z 23009KT 6000 BKN009 06/05 Q1022
EDDW 180020Z 23009KT 8000 BKN009 BKN040 06/05 Q1022
EDDW 172350Z 24010KT 8000 BKN009 BKN045 06/05 Q1022
EDDW 172320Z 23008KT 7000 SCT009 BKN047 06/05 Q1022
EDDW 172250Z 22008KT 7000 BKN008 BKN040 06/05 Q1022
EDDW 172220Z 22009KT 7000 FEW010 BKN042 06/05 Q1022
EDDW 172150Z 23008KT 6000 -RADZ SCT009 BKN040 06/05 Q1021
EDDW 172120Z 23006KT 6000 FEW012 BKN055 06/05 Q1021 R88/290095
EDDW 172050Z 22007KT 6000 FEW016 BKN058 06/05 Q1021 R88/290095 NOSIG
EDDW 172020Z 22008KT 6000 SCT019 BKN055 06/05 Q1021 R88/290095 NOSIG
EDDW 171950Z 22007KT 4500 BR BKN008 BKN052 06/05 Q1021 R88/290095 BECMG 6000
EDDW 171920Z 22007KT 4500 BR BKN008 BKN052 06/06 Q1020 R88/290095 TEMPO 5000 FEW008 BKN030
EDDW 171850Z 21006KT 4500 BR BKN007 BKN012 06/05 Q1020 R88/290095 TEMPO 5000 FEW008 BKN030
EDDW 171820Z 20007KT 5000 BR FEW008 BKN012 06/05 Q1020 R88/290095 BECMG FEW008 BKN020
EDDW 171750Z 20005KT 5000 BR BKN006 OVC021 05/05 Q1019 R88/290095 BECMG SCT005 BKN020
EDDW 171720Z 18004KT 5000 -RADZ BR OVC005 05/05 Q1019 R88/290095 BECMG SCT005 BKN020
EDDW 171650Z 17005KT 4600 -RADZ BR OVC006 05/04 Q1019 R88/290095 NOSIG
EDDW 171620Z 15004KT 6000 OVC007 05/04 Q1019 R88/290095 TEMPO 4500 -RADZ
EDDW 171550Z 14005KT 6000 -RA OVC007 05/04 Q1018 R88/290095 TEMPO 4500
EDDW 171520Z 15006KT 7000 OVC007 04/03 Q1018 R88/290095 TEMPO 4500 -RADZ
EDDW 171450Z 13005KT 8000 OVC008 04/03 Q1018 R88/290095 TEMPO 4500 -RADZ
EDDW 171420Z 13005KT 8000 BKN009 OVC030 04/03 Q1018 R88/290095 TEMPO 4500 -RADZ
EDDW 171350Z 13006KT 7000 BKN010 OVC030 04/03 Q1018 R88/290095 TEMPO 4500 -RADZ BKN008
EDDW 171320Z 14005KT 7000 BKN012 BKN030 04/03 Q1017 R88/290095 TEMPO 4500 -RADZ BKN008
EDDW 171250Z 15007KT 7000 FEW009 BKN018 BKN049 04/03 Q1017 R88/290095 TEMPO 4500 -RADZ BKN008
EDDW 171220Z 15008KT 7000 FEW011 BKN016 BKN033 04/02 Q1017 R88/290095 TEMPO 4500 -RADZ BKN008
EDDW 171150Z 14007KT 7000 BKN011 BKN035 03/02 Q1017 R88/290095 TEMPO 4500 -RADZ BKN008
EDDW 171120Z 14007KT 6000 BKN013 BKN035 03/02 Q1017 R88/290095 TEMPO 4500 -RADZ BKN008